Report METAR

 

LIPX - Villafranca(Cv/M, Italy
Distanza dalla stazione: S 60km
Dati ricevuti: Thu, 02/07/2020 09:50
Parz. nuvoloso
Parz. nuvoloso
 Vento da Variabile
Vento: Variabile 4 km/h
Temperatura: 24°C
Punto Rugiada: 20°C
Umidità: 78%
Barometro: 1011 hPa
Nuvole: Parz. nuvoloso
VisibilitÓ: 10 km
Dettaglio nuvole: Parz. nuvoloso 457 m
2020/07/02 07:50 LIPX 020750Z VRB02KT 9999 SCT015 24/20 Q1011
LIPB - Bolzano(Civ/It-A, Italy
Distanza dalla stazione: NNE 68km
Dati ricevuti: Thu, 02/07/2020 09:50
Parz. nuvoloso
Parz. nuvoloso
 Vento da Variabile
Vento: Variabile 2 km/h
Temperatura: 23°C
Punto Rugiada: 17°C
Umidità: 69%
Barometro: 1013 hPa
Nuvole: Parz. nuvoloso
VisibilitÓ: 10 km
Dettaglio nuvole: Poche nubi 1219 m
Parz. nuvoloso 2743 m
2020/07/02 07:50 LIPB 020750Z VRB01KT 9999 FEW040 SCT090 23/17 Q1013
 
LIPO - Brescia/Montichi, Italy
Distanza dalla stazione: SO 71km
Dati ricevuti: Thu, 02/07/2020 09:50
Sereno
Sereno
 Vento da OSO
Vento: OSO 9 km/h
Temperatura: 25°C
Punto Rugiada: 19°C
Umidità: 69%
Barometro: 1011 hPa
Sommario: Sereno
VisibilitÓ: superiore a 10 km
2020/07/02 07:50 LIPO 020750Z 25005KT 210V290 CAVOK 25/19 Q1011
LIPL - Ghedi (it-Afb), Italy
Distanza dalla stazione: SO 75km
Dati ricevuti: Thu, 02/07/2020 09:55
Sereno
Sereno
 Vento da SSO
Vento: SSO 6 km/h
Temperatura: 24°C
Punto Rugiada: 18°C
Umidità: 69%
Barometro: 1011 hPa
Sommario: Sereno
VisibilitÓ: superiore a 10 km
2020/07/02 07:55 LIPL 020755Z 20003KT CAVOK 24/18 Q1011 RMK SKC VIS MIN 9999 WIND THR31 22005KT WIND THR13 23004KT BLU
 
LIVR - Rolle Pass, Italy
Distanza dalla stazione: ENE 78km
Dati ricevuti: Thu, 02/07/2020 08:55
DATI Obsoleti
Molto nuvoloso
Molto nuvoloso
 Vento da NO
Vento: NO 9 km/h
Temperatura: 11°C
Punto Rugiada: 7°C
Umidità: 77%
Barometro: 1019 hPa
Nuvole: Molto nuvoloso
VisibilitÓ: 10 km
Dettaglio nuvole: Poche nubi 610 m
Molto nuvoloso 1524 m
2020/07/02 06:55 LIVR 020655Z 31005KT 9999 FEW020 BKN050 11/07 Q1019
LIPS - Istrana (it-Afb), Italy
Distanza dalla stazione: ESE 96km
Dati ricevuti: Thu, 02/07/2020 09:55
Pioviggine, Nuvoloso
Pioviggine, Nuvoloso
 Vento da Variabile
Vento: Variabile 0 km/h
Temperatura: 23°C
Punto Rugiada: 22°C
Umidità: 94%
Barometro: 1011 hPa
Sommario: Pioviggine
Nuvole: Molto nuvoloso
VisibilitÓ: 10 km
Dettaglio nuvole: Parz. nuvoloso 914 m
Molto nuvoloso 2438 m
2020/07/02 07:55 LIPS 020755Z /////KT 9999 -RA SCT030 BKN080 23/22 Q1011 RMK BKN VIS MIN 9999 WIND THR26 33006KT WIND THR08 33006KT BLU
 
LIME - Bergamo/Orio Ser, Italy
Distanza dalla stazione: OSO 99km
Dati ricevuti: Thu, 02/07/2020 09:50
Sereno
Sereno
 Vento da Variabile
Vento: Variabile 4 km/h
Temperatura: 24°C
Punto Rugiada: 19°C
Umidità: 74%
Barometro: 1012 hPa
Sommario: Sereno
VisibilitÓ: superiore a 10 km
2020/07/02 07:50 LIME 020750Z VRB02KT CAVOK 24/19 Q1012 NOSIG
LIPH - Treviso(Civ/It-A, Italy
Distanza dalla stazione: ESE 103km
Dati ricevuti: Thu, 02/07/2020 09:50
Pioviggine, Nuvoloso
Pioviggine, Nuvoloso
 Vento da N
Vento: N 6 km/h
Temperatura: 21°C
Punto Rugiada: 20°C
Umidità: 94%
Barometro: 1011 hPa
Sommario: Pioviggine
Nuvole: Molto nuvoloso
VisibilitÓ: 10 km
Dettaglio nuvole: Parz. nuvoloso 1219 m
Molto nuvoloso 1829 m
2020/07/02 07:50 LIPH 020750Z 01003KT 310V030 9999 -RA SCT040 BKN060 21/20 Q1011
 
LSZS - Samedan, Switzerland
Distanza dalla stazione: NO 104km
Dati ricevuti: Thu, 02/07/2020 10:20
Poche nubi
Poche nubi
 Vento da Variabile
Vento: Variabile 2 km/h
Temperatura: 15°C
Punto Rugiada: 9°C
Umidità: 68%
Barometro: 1019 hPa
Nuvole: Poche nubi
VisibilitÓ: 10 km
Dettaglio nuvole: Poche nubi 1829 m
2020/07/02 08:20 LSZS 020820Z VRB01KT 9999 FEW060 15/09 Q1019 RMK F
LIVE - Resia Pass, Italy
Distanza dalla stazione: NNO 108km
Dati ricevuti: Thu, 02/07/2020 09:55
Molto nuvoloso
Molto nuvoloso
 Vento da NNE
Vento: NNE 7 km/h
Temperatura: 13°C
Punto Rugiada: 10°C
Umidità: 82%
Barometro: 1017 hPa
Nuvole: Molto nuvoloso
VisibilitÓ: 10 km
Dettaglio nuvole: Parz. nuvoloso 762 m
Molto nuvoloso 1067 m
2020/07/02 07:55 LIVE 020755Z 02004KT 9999 SCT025 BKN035 13/10 Q1017 RMK BKN VIS MIN 9999
 
LIPZ - Venezia/Tessera, Italy
Distanza dalla stazione: ESE 122km
Dati ricevuti: Thu, 02/07/2020 09:50
Pioviggine, Nuvoloso
Pioviggine, Nuvoloso
 Vento da NNE
Vento: NNE 15 km/h
Temperatura: 20°C
Punto Rugiada: 20°C
Umidità: 100%
Barometro: 1010 hPa
Sommario: Pioviggine
Nuvole: Molto nuvoloso
VisibilitÓ: 10 km
Dettaglio nuvole: Poche nubi 762 m
Molto nuvoloso 2134 m
2020/07/02 07:50 LIPZ 020750Z 03008KT 9999 -RA FEW025 BKN070 20/20 Q1010 NOSIG
LIMP - Parma, Italy
Distanza dalla stazione: SSO 132km
Dati ricevuti: Thu, 02/07/2020 09:50
Sereno
Sereno
 Vento da Variabile
Vento: Variabile 4 km/h
Temperatura: 26°C
Punto Rugiada: 25°C
Umidità: 94%
Barometro: 1011 hPa
Sommario: Sereno
VisibilitÓ: superiore a 10 km
2020/07/02 07:50 LIMP 020750Z VRB02KT CAVOK 26/25 Q1011
 
LIVD - Dobbiaco, Italy
Distanza dalla stazione: NE 134km
Dati ricevuti: Thu, 02/07/2020 08:55
DATI Obsoleti
Parz. nuvoloso
Parz. nuvoloso
 Vento da Variabile
Vento: Variabile 0 km/h
Temperatura: 17°C
Punto Rugiada: 13°C
Umidità: 77%
Barometro: 1018 hPa
Nuvole: Parz. nuvoloso
VisibilitÓ: 10 km
Dettaglio nuvole: Parz. nuvoloso 610 m
Parz. nuvoloso 1219 m
2020/07/02 06:55 LIVD 020655Z /////KT 9999 SCT020 SCT040 17/13 Q1018 RMK BKN VIS MIN 9999 BLU
LIPF - Ferrara (aut), Italy
Distanza dalla stazione: SSE 135km
Dati ricevuti: Thu, 02/07/2020 09:55
Parz. nuvoloso
Parz. nuvoloso
 Vento da Variabile
Vento: Variabile 0 km/h
Temperatura: 23°C
Punto Rugiada: 21°C
Umidità: 89%
Barometro: 1011 hPa
Nuvole: Parz. nuvoloso
VisibilitÓ: 10 km
Dettaglio nuvole: Parz. nuvoloso 762 m
2020/07/02 07:55 LIPF 020755Z /////KT 9999 SCT025 23/21 Q1011
 
LIML - Milano/Linate, Italy
Distanza dalla stazione: OSO 137km
Dati ricevuti: Thu, 02/07/2020 09:50
Sereno
Sereno
 Vento da Variabile
Vento: Variabile 4 km/h
Temperatura: 25°C
Punto Rugiada: 21°C
Umidità: 79%
Barometro: 1011 hPa
Sommario: Sereno
VisibilitÓ: superiore a 10 km
2020/07/02 07:50 LIML 020750Z VRB02KT CAVOK 25/21 Q1011 NOSIG
LIMS - Piacenza (it-Afb, Italy
Distanza dalla stazione: SO 145km
Dati ricevuti: Thu, 02/07/2020 09:55
Sereno
Sereno
 Vento da N
Vento: N 4 km/h
Temperatura: 26°C
Punto Rugiada: 19°C
Umidità: 65%
Barometro: 1011 hPa
Sommario: Sereno
VisibilitÓ: superiore a 10 km
2020/07/02 07:55 LIMS 020755Z 01002KT CAVOK 26/19 Q1011